Time;durP1;ratioP1;P1;durP2;ratioP2;P2;SDS_P1;SDS_P2;PMS_P1;PMS_P2;Temp;Humidity;BMP_temperature;BMP_pressure;BME280_temperature;BME280_humidity;BME280_pressure;Samples;Min_cycle;Max_cycle;Signal;HPM_P1;HPM_P2
2023/12/26 00:00:40;;;;;;;;;;;;;;;19.63;48.26;99851.00;2059110;28;6244;-69
2023/12/26 00:01:45;;;;;;;;;;;;;;;19.62;48.17;99843.78;2060738;28;1574;-69
2023/12/26 00:02:47;;;;;;;;;;;;;;;19.62;48.38;99838.03;2058723;28;2183;-69
2023/12/26 00:03:48;;;;;;;;;;;;;;;19.62;48.16;99831.56;2056986;28;1659;-69
2023/12/26 00:04:50;;;;;;;;;;;;;;;19.62;48.14;99831.56;2059078;28;2087;-69
2023/12/26 00:05:51;;;;;;;;;;;;;;;19.62;48.21;99831.56;2055822;28;2218;-70
2023/12/26 00:06:53;;;;;;;;;;;;;;;19.61;48.25;99830.84;2059854;28;2317;-69
2023/12/26 00:07:54;;;;;;;;;;;;;;;19.61;48.20;99830.84;2058432;28;1986;-70
2023/12/26 00:08:55;;;;;;;;;;;;;;;19.62;48.25;99834.44;2059526;28;2170;-69
2023/12/26 00:09:57;;;;;;;;;;;;;;;19.61;48.25;99830.09;2063199;28;2392;-69
2023/12/26 00:10:58;;;;;;;;;;;;;;;19.61;48.25;99825.09;2056780;28;1912;-69
2023/12/26 00:12:00;;;;;;;;;;;;;;;19.61;48.27;99835.84;2063155;28;2078;-69
2023/12/26 00:13:02;;;;;;;;;;;;;;;19.60;48.24;99823.59;2061161;28;2050;-69
2023/12/26 00:14:03;;;;;;;;;;;;;;;19.60;48.19;99832.22;2062546;28;1675;-69
2023/12/26 00:15:05;;;;;;;;;;;;;;;19.60;48.26;99826.47;2061355;28;2329;-69
2023/12/26 00:16:06;;;;;;;;;;;;;;;19.61;48.23;99825.09;2062422;28;2156;-70
2023/12/26 00:17:08;;;;;;;;;;;;;;;19.60;48.34;99823.59;2063244;28;2079;-70
2023/12/26 00:18:10;;;;;;;;;;;;;;;19.60;48.29;99826.47;2059022;28;2163;-69
2023/12/26 00:19:11;;;;;;;;;;;;;;;19.60;48.29;99820.75;2060948;28;2272;-69
2023/12/26 00:20:13;;;;;;;;;;;;;;;19.61;48.29;99812.88;2062809;28;2157;-69
2023/12/26 00:21:15;;;;;;;;;;;;;;;19.60;48.26;99809.25;2061536;28;2101;-69
2023/12/26 00:22:16;;;;;;;;;;;;;;;19.60;48.21;99811.41;2062715;28;2045;-70
2023/12/26 00:23:18;;;;;;;;;;;;;;;19.60;48.25;99805.66;2065557;28;2177;-70
2023/12/26 00:24:20;;;;;;;;;;;;;;;19.59;48.26;99807.78;2058373;28;1698;-70
2023/12/26 00:25:21;;;;;;;;;;;;;;;19.59;48.10;99804.19;2063820;28;1702;-70
2023/12/26 00:26:23;;;;;;;;;;;;;;;19.58;48.14;99794.81;2060516;28;1746;-71
2023/12/26 00:27:24;;;;;;;;;;;;;;;19.58;48.22;99791.94;2061965;28;2058;-69
2023/12/26 00:28:25;;;;;;;;;;;;;;;19.59;48.26;99787.69;2061379;28;1718;-71
2023/12/26 00:29:27;;;;;;;;;;;;;;;19.58;48.26;99794.81;2061607;28;2194;-71
2023/12/26 00:30:28;;;;;;;;;;;;;;;19.58;48.01;99794.09;2052811;28;6374;-70
2023/12/26 00:31:30;;;;;;;;;;;;;;;19.58;48.30;99789.06;2054363;28;1730;-69
2023/12/26 00:32:31;;;;;;;;;;;;;;;19.58;48.19;99791.94;2057839;28;2089;-70
2023/12/26 00:33:33;;;;;;;;;;;;;;;19.58;48.24;99786.22;2057477;28;1866;-70
2023/12/26 00:34:35;;;;;;;;;;;;;;;19.58;48.26;99783.34;2062474;28;2326;-70
2023/12/26 00:35:36;;;;;;;;;;;;;;;19.57;48.26;99779.00;2063499;28;1710;-69
2023/12/26 00:36:38;;;;;;;;;;;;;;;19.59;48.21;99781.22;2060218;28;1994;-69
2023/12/26 00:37:39;;;;;;;;;;;;;;;19.57;48.22;99779.00;2063488;28;2002;-69
2023/12/26 00:38:40;;;;;;;;;;;;;;;19.58;48.26;99774.72;2060518;28;1803;-70
2023/12/26 00:39:42;;;;;;;;;;;;;;;19.58;48.24;99779.75;2058734;28;2311;-69
2023/12/26 00:40:43;;;;;;;;;;;;;;;19.57;48.25;99779.00;2062240;28;2102;-69
2023/12/26 00:41:45;;;;;;;;;;;;;;;19.57;48.21;99773.28;2061793;28;1655;-69
2023/12/26 00:42:46;;;;;;;;;;;;;;;19.57;48.15;99770.41;2061336;28;2110;-70
2023/12/26 00:43:48;;;;;;;;;;;;;;;19.57;48.49;99767.53;2063409;28;1654;-69
2023/12/26 00:44:49;;;;;;;;;;;;;;;19.56;48.35;99760.31;2061145;28;1904;-69
2023/12/26 00:45:51;;;;;;;;;;;;;;;19.57;48.27;99761.06;2060444;28;1926;-70
2023/12/26 00:46:52;;;;;;;;;;;;;;;19.56;48.28;99766.06;2061678;28;1687;-69
2023/12/26 00:47:54;;;;;;;;;;;;;;;19.56;48.20;99768.94;2067221;28;1599;-69
2023/12/26 00:48:55;;;;;;;;;;;;;;;19.56;48.13;99765.31;2061460;28;1996;-69
2023/12/26 00:49:59;;;;;;;;;;;;;;;19.56;48.18;99771.81;2060796;28;2295;-70
2023/12/26 00:51:00;;;;;;;;;;;;;;;19.56;48.29;99766.06;2062012;28;2152;-70
2023/12/26 00:52:02;;;;;;;;;;;;;;;19.56;48.29;99768.19;2061974;28;2161;-70
2023/12/26 00:53:05;;;;;;;;;;;;;;;19.55;48.29;99764.59;2061506;28;2233;-69
2023/12/26 00:54:07;;;;;;;;;;;;;;;19.55;48.28;99755.97;2059733;28;2209;-70
2023/12/26 00:55:08;;;;;;;;;;;;;;;19.55;48.36;99764.59;2058192;28;2063;-70
2023/12/26 00:56:10;;;;;;;;;;;;;;;19.57;48.32;99764.66;2058864;28;1691;-70
2023/12/26 00:57:11;;;;;;;;;;;;;;;19.56;48.24;99759.56;2059590;28;1668;-70
2023/12/26 00:58:12;;;;;;;;;;;;;;;19.55;48.19;99755.97;2059178;28;1715;-70
2023/12/26 00:59:14;;;;;;;;;;;;;;;19.55;48.25;99758.84;2059736;28;2282;-70
2023/12/26 01:00:15;;;;;;;;;;;;;;;19.55;48.16;99747.34;2059714;28;6201;-69
2023/12/26 01:01:17;;;;;;;;;;;;;;;19.54;48.27;99748.78;2064986;28;1687;-69
2023/12/26 01:02:21;;;;;;;;;;;;;;;19.54;48.36;99745.91;2060407;28;2274;-69
2023/12/26 01:03:22;;;;;;;;;;;;;;;19.54;48.33;99742.28;2061998;28;2090;-70
2023/12/26 01:04:24;;;;;;;;;;;;;;;19.54;48.31;99751.66;2059310;28;2384;-70
2023/12/26 01:05:26;;;;;;;;;;;;;;;19.55;48.16;99743.75;2062105;28;2463;-70
2023/12/26 01:06:28;;;;;;;;;;;;;;;19.54;48.29;99745.91;2061579;28;1976;-69
2023/12/26 01:07:29;;;;;;;;;;;;;;;19.54;48.36;99740.16;2063402;28;2306;-70
2023/12/26 01:08:31;;;;;;;;;;;;;;;19.54;48.32;99737.28;2061665;28;1654;-70
2023/12/26 01:09:33;;;;;;;;;;;;;;;19.53;48.36;99732.94;2061738;28;2099;-69
2023/12/26 01:10:35;;;;;;;;;;;;;;;19.53;48.22;99732.19;2062517;28;2322;-69
2023/12/26 01:11:36;;;;;;;;;;;;;;;19.54;48.29;99725.03;2062695;28;1575;-70
2023/12/26 01:12:38;;;;;;;;;;;;;;;19.52;48.34;99725.72;2058388;28;1610;-70
2023/12/26 01:13:39;;;;;;;;;;;;;;;19.53;48.26;99723.59;2055231;28;2086;-69
2023/12/26 01:14:41;;;;;;;;;;;;;;;19.51;48.31;99727.13;2055066;28;1735;-69
2023/12/26 01:15:42;;;;;;;;;;;;;;;19.52;48.40;99725.72;2060954;28;2040;-68
2023/12/26 01:16:45;;;;;;;;;;;;;;;19.53;48.38;99729.34;2060296;28;1931;-70
2023/12/26 01:17:46;;;;;;;;;;;;;;;19.52;48.27;99734.34;2060014;28;2231;-70
2023/12/26 01:18:48;;;;;;;;;;;;;;;19.52;48.34;99720.00;2059089;28;2332;-70
2023/12/26 01:19:50;;;;;;;;;;;;;;;19.52;48.30;99725.72;2059775;28;2276;-69
2023/12/26 01:20:51;;;;;;;;;;;;;;;19.53;48.35;99720.72;2060205;28;1721;-70
2023/12/26 01:21:53;;;;;;;;;;;;;;;19.52;48.26;99730.75;2060102;28;1673;-70
2023/12/26 01:22:54;;;;;;;;;;;;;;;19.52;48.43;99725.00;2061154;28;2085;-70
2023/12/26 01:23:55;;;;;;;;;;;;;;;19.51;48.31;99712.78;2057625;28;2431;-70
2023/12/26 01:24:58;;;;;;;;;;;;;;;19.52;48.38;99722.88;2060097;28;1567;-70
2023/12/26 01:25:59;;;;;;;;;;;;;;;19.51;48.34;99715.63;2061748;28;1626;-70
2023/12/26 01:27:01;;;;;;;;;;;;;;;19.51;48.32;99712.78;2062046;28;1639;-70
2023/12/26 01:28:02;;;;;;;;;;;;;;;19.52;48.26;99713.53;2059791;28;1944;-70
2023/12/26 01:29:04;;;;;;;;;;;;;;;19.52;48.26;99716.41;2062417;28;2095;-70
2023/12/26 01:30:06;;;;;;;;;;;;;;;19.51;48.25;99718.50;2059181;28;6123;-68
2023/12/26 01:31:07;;;;;;;;;;;;;;;19.52;48.37;99714.25;2060732;28;2040;-69
2023/12/26 01:32:09;;;;;;;;;;;;;;;19.51;48.36;99712.78;2059638;28;2032;-70
2023/12/26 01:33:10;;;;;;;;;;;;;;;19.50;48.41;99714.19;2062544;28;2141;-70
2023/12/26 01:34:12;;;;;;;;;;;;;;;19.50;48.35;99722.78;2063167;28;2231;-70
2023/12/26 01:35:13;;;;;;;;;;;;;;;19.51;48.28;99712.78;2062075;28;2042;-69
2023/12/26 01:36:15;;;;;;;;;;;;;;;19.50;48.35;99705.56;2062024;28;1508;-70
2023/12/26 01:37:16;;;;;;;;;;;;;;;19.51;48.39;99712.78;2059073;28;1575;-70
2023/12/26 01:38:18;;;;;;;;;;;;;;;19.51;48.40;99700.56;2059953;28;2123;-69
2023/12/26 01:39:19;;;;;;;;;;;;;;;19.50;48.41;99699.81;2057487;28;2217;-70
2023/12/26 01:40:21;;;;;;;;;;;;;;;19.50;48.40;99699.09;2060978;28;1583;-71
2023/12/26 01:41:22;;;;;;;;;;;;;;;19.49;48.38;99686.88;2066473;28;1625;-69
2023/12/26 01:42:23;;;;;;;;;;;;;;;19.49;48.36;99695.47;2062206;28;2012;-70
2023/12/26 01:43:25;;;;;;;;;;;;;;;19.49;48.42;99686.88;2065205;28;2093;-70
2023/12/26 01:44:27;;;;;;;;;;;;;;;19.51;48.44;99689.06;2061308;28;1996;-70
2023/12/26 01:45:28;;;;;;;;;;;;;;;19.50;48.40;99685.47;2057863;28;2089;-70
2023/12/26 01:46:30;;;;;;;;;;;;;;;19.49;48.42;99684.00;2055322;28;2028;-70
2023/12/26 01:47:32;;;;;;;;;;;;;;;19.49;48.49;99681.13;2054852;28;1795;-70
2023/12/26 01:48:33;;;;;;;;;;;;;;;19.49;48.64;99686.13;2058923;28;2502;-70
2023/12/26 01:49:35;;;;;;;;;;;;;;;19.49;48.45;99686.13;2061770;28;1635;-70
2023/12/26 01:50:36;;;;;;;;;;;;;;;19.48;48.45;99673.91;2059821;28;1758;-70
2023/12/26 01:51:37;;;;;;;;;;;;;;;19.49;48.43;99681.13;2061411;28;1619;-70
2023/12/26 01:52:39;;;;;;;;;;;;;;;19.48;48.41;99673.91;2061546;28;1726;-70
2023/12/26 01:53:41;;;;;;;;;;;;;;;19.49;48.42;99677.53;2061917;28;2116;-70
2023/12/26 01:54:42;;;;;;;;;;;;;;;19.49;48.40;99672.50;2059334;28;2206;-70
2023/12/26 01:55:43;;;;;;;;;;;;;;;19.49;48.38;99672.50;2062106;28;2271;-70
2023/12/26 01:56:45;;;;;;;;;;;;;;;19.47;48.37;99678.22;2061248;28;1816;-70
2023/12/26 01:57:47;;;;;;;;;;;;;;;19.48;48.43;99673.91;2054520;28;2134;-70
2023/12/26 01:58:48;;;;;;;;;;;;;;;19.47;48.52;99672.47;2054862;28;2388;-70
2023/12/26 01:59:50;;;;;;;;;;;;;;;19.47;48.48;99675.34;2061107;28;2104;-70
2023/12/26 02:00:51;;;;;;;;;;;;;;;19.49;48.45;99689.00;2059611;28;6004;-70
2023/12/26 02:01:53;;;;;;;;;;;;;;;19.48;48.45;99667.44;2062828;28;1630;-70
2023/12/26 02:02:54;;;;;;;;;;;;;;;19.47;48.39;99678.22;2062872;28;1596;-70
2023/12/26 02:03:59;;;;;;;;;;;;;;;19.46;48.52;99674.59;2057067;28;2235;-70
2023/12/26 02:05:01;;;;;;;;;;;;;;;19.47;48.45;99672.47;2057090;28;1587;-70
2023/12/26 02:06:03;;;;;;;;;;;;;;;19.46;48.51;99673.84;2053416;28;2048;-70
2023/12/26 02:07:06;;;;;;;;;;;;;;;19.47;48.54;99666.72;2063269;28;2153;-70
2023/12/26 02:08:07;;;;;;;;;;;;;;;19.47;48.50;99666.72;2061327;28;1934;-70
2023/12/26 02:09:19;;;;;;;;;;;;;;;19.46;48.53;99654.50;2054998;28;2238;-70
2023/12/26 02:10:20;;;;;;;;;;;;;;;19.46;48.41;99643.00;2053379;28;1718;-70
2023/12/26 02:11:22;;;;;;;;;;;;;;;19.46;48.38;99648.75;2061054;28;2298;-70
2023/12/26 02:12:23;;;;;;;;;;;;;;;19.46;48.53;99654.50;2059817;28;2060;-70
2023/12/26 02:13:24;;;;;;;;;;;;;;;19.46;48.56;99642.28;2061890;28;2100;-70
2023/12/26 02:14:26;;;;;;;;;;;;;;;19.45;48.49;99641.56;2061172;28;1597;-70
2023/12/26 02:15:27;;;;;;;;;;;;;;;19.45;48.51;99635.09;2058905;28;1735;-70
2023/12/26 02:16:29;;;;;;;;;;;;;;;19.45;48.55;99623.59;2061604;28;1910;-70
2023/12/26 02:17:30;;;;;;;;;;;;;;;19.45;48.55;99632.94;2060960;28;2103;-70
2023/12/26 02:18:32;;;;;;;;;;;;;;;19.44;48.53;99640.06;2055627;28;1575;-70
2023/12/26 02:19:39;;;;;;;;;;;;;;;19.44;48.31;99634.31;2053389;28;2267;-70
2023/12/26 02:20:41;;;;;;;;;;;;;;;19.45;48.50;99640.81;2060446;28;1546;-70
2023/12/26 02:21:42;;;;;;;;;;;;;;;19.45;48.60;99635.09;2059411;28;2145;-69
2023/12/26 02:22:45;;;;;;;;;;;;;;;19.45;48.45;99623.59;2059661;28;1730;-71
2023/12/26 02:23:52;;;;;;;;;;;;;;;19.45;48.52;99629.34;2058299;28;2059;-70
2023/12/26 02:24:54;;;;;;;;;;;;;;;19.45;48.54;99626.47;2060549;28;1658;-70
2023/12/26 02:25:55;;;;;;;;;;;;;;;19.45;48.50;99627.19;2062459;28;1472;-70
2023/12/26 02:26:56;;;;;;;;;;;;;;;19.45;48.53;99630.06;2059436;28;2049;-70
2023/12/26 02:27:58;;;;;;;;;;;;;;;19.44;48.54;99627.84;2059805;28;1961;-70
2023/12/26 02:29:00;;;;;;;;;;;;;;;19.45;48.53;99620.72;2057066;28;2256;-71
2023/12/26 02:30:02;;;;;;;;;;;;;;;19.45;48.55;99618.59;2049742;28;1662;-70
2023/12/26 02:31:04;;;;;;;;;;;;;;;19.45;48.56;99617.84;2050985;28;6156;-70
2023/12/26 02:32:05;;;;;;;;;;;;;;;19.44;48.48;99610.63;2060961;28;1641;-70
2023/12/26 02:33:07;;;;;;;;;;;;;;;19.44;48.59;99622.13;2057807;28;1752;-70
2023/12/26 02:34:08;;;;;;;;;;;;;;;19.45;48.59;99617.84;2058308;28;2267;-70
2023/12/26 02:35:10;;;;;;;;;;;;;;;19.44;48.45;99622.84;2053007;28;2161;-70
2023/12/26 02:36:11;;;;;;;;;;;;;;;19.44;48.44;99616.38;2048582;28;1972;-70
2023/12/26 02:37:13;;;;;;;;;;;;;;;19.43;48.63;99612.06;2056953;28;2142;-70
2023/12/26 02:38:14;;;;;;;;;;;;;;;19.44;48.59;99610.63;2062807;28;1724;-70
2023/12/26 02:39:16;;;;;;;;;;;;;;;19.43;48.67;99603.44;2058997;28;1679;-70
2023/12/26 02:40:17;;;;;;;;;;;;;;;19.43;48.61;99609.19;2058098;28;2173;-69
2023/12/26 02:41:19;;;;;;;;;;;;;;;19.43;48.64;99607.03;2060645;28;1611;-70
2023/12/26 02:42:20;;;;;;;;;;;;;;;19.43;48.60;99609.19;2060365;28;1877;-70
2023/12/26 02:43:21;;;;;;;;;;;;;;;19.43;48.62;99603.44;2060149;28;2048;-70
2023/12/26 02:44:23;;;;;;;;;;;;;;;19.43;48.59;99606.31;2058589;28;2500;-69
2023/12/26 02:45:24;;;;;;;;;;;;;;;19.43;48.61;99603.44;2059872;28;2109;-70
2023/12/26 02:46:26;;;;;;;;;;;;;;;19.43;48.58;99609.91;2061912;28;2038;-70
2023/12/26 02:47:27;;;;;;;;;;;;;;;19.42;48.60;99593.34;2061856;28;1865;-70
2023/12/26 02:48:29;;;;;;;;;;;;;;;19.42;48.59;99596.97;2061339;28;1936;-70
2023/12/26 02:49:31;;;;;;;;;;;;;;;19.42;48.63;99590.47;2061227;28;2194;-70
2023/12/26 02:50:33;;;;;;;;;;;;;;;19.42;48.50;99590.47;2059498;28;2349;-65
2023/12/26 02:51:35;;;;;;;;;;;;;;;19.42;48.52;99590.47;2060517;28;1941;-67
2023/12/26 02:52:36;;;;;;;;;;;;;;;19.42;48.58;99601.97;2058826;28;2042;-65
2023/12/26 02:53:38;;;;;;;;;;;;;;;19.43;48.63;99600.56;2058892;28;1898;-70
2023/12/26 02:54:39;;;;;;;;;;;;;;;19.42;48.50;99584.75;2056861;28;1628;-67
2023/12/26 02:55:41;;;;;;;;;;;;;;;19.41;48.57;99584.00;2057140;28;1603;-67
2023/12/26 02:56:42;;;;;;;;;;;;;;;19.41;48.55;99578.25;2060343;28;1987;-67
2023/12/26 02:57:43;;;;;;;;;;;;;;;19.41;48.52;99600.50;2058186;28;1587;-67
2023/12/26 02:58:45;;;;;;;;;;;;;;;19.41;48.66;99589.75;2059349;28;1916;-67
2023/12/26 02:59:46;;;;;;;;;;;;;;;19.41;48.53;99589.75;2057587;28;2051;-67
2023/12/26 03:00:48;;;;;;;;;;;;;;;19.42;48.65;99590.47;2060055;28;6309;-67
2023/12/26 03:01:49;;;;;;;;;;;;;;;19.41;48.63;99600.50;2062872;28;2221;-67
2023/12/26 03:02:51;;;;;;;;;;;;;;;19.43;48.51;99600.56;2061171;28;2059;-67
2023/12/26 03:03:52;;;;;;;;;;;;;;;19.41;48.65;99589.03;2060368;28;2105;-67
2023/12/26 03:04:54;;;;;;;;;;;;;;;19.41;48.54;99589.75;2059436;28;2456;-67
2023/12/26 03:05:55;;;;;;;;;;;;;;;19.41;48.61;99595.50;2058512;28;2232;-67
2023/12/26 03:06:57;;;;;;;;;;;;;;;19.40;48.67;99596.16;2062122;28;2039;-67
2023/12/26 03:07:59;;;;;;;;;;;;;;;19.39;48.66;99598.31;2060645;28;1651;-67
2023/12/26 03:09:00;;;;;;;;;;;;;;;19.40;48.67;99588.28;2061982;28;2347;-67
2023/12/26 03:10:05;;;;;;;;;;;;;;;19.40;48.65;99587.53;2059631;28;2205;-67
2023/12/26 03:11:06;;;;;;;;;;;;;;;19.40;48.60;99604.75;2061327;28;1869;-67
2023/12/26 03:12:07;;;;;;;;;;;;;;;19.39;48.63;99586.81;2060219;28;2058;-68
2023/12/26 03:13:09;;;;;;;;;;;;;;;19.40;48.59;99576.06;2060697;28;1701;-67
2023/12/26 03:14:12;;;;;;;;;;;;;;;19.40;48.68;99578.94;2060302;28;2178;-68
2023/12/26 03:15:15;;;;;;;;;;;;;;;19.39;48.64;99580.34;2055959;28;1954;-67
2023/12/26 03:16:17;;;;;;;;;;;;;;;19.40;48.64;99596.91;2059686;28;2027;-67
2023/12/26 03:17:18;;;;;;;;;;;;;;;19.40;48.65;99590.41;2057484;28;2315;-67
2023/12/26 03:18:19;;;;;;;;;;;;;;;19.40;48.59;99581.81;2061931;28;2141;-67
2023/12/26 03:19:21;;;;;;;;;;;;;;;19.40;48.68;99593.28;2060032;28;2342;-67
2023/12/26 03:20:23;;;;;;;;;;;;;;;19.40;48.57;99584.66;2055934;28;2166;-67
2023/12/26 03:21:25;;;;;;;;;;;;;;;19.38;48.60;99585.38;2058359;28;2060;-67
2023/12/26 03:22:26;;;;;;;;;;;;;;;19.40;48.71;99588.28;2059289;28;2008;-68
2023/12/26 03:23:27;;;;;;;;;;;;;;;19.39;48.68;99586.81;2061177;28;1607;-67
2023/12/26 03:24:29;;;;;;;;;;;;;;;19.39;48.68;99591.81;2058433;28;2198;-67
2023/12/26 03:25:30;;;;;;;;;;;;;;;19.39;48.71;99591.81;2060691;28;1685;-68
2023/12/26 03:26:32;;;;;;;;;;;;;;;19.39;48.74;99589.69;2061716;28;1587;-68
2023/12/26 03:27:33;;;;;;;;;;;;;;;19.37;48.60;99589.63;2060046;28;2100;-68
2023/12/26 03:28:35;;;;;;;;;;;;;;;19.39;48.65;99586.81;2059944;28;1767;-67
2023/12/26 03:29:36;;;;;;;;;;;;;;;19.38;48.66;99590.38;2059181;28;2267;-68
2023/12/26 03:30:38;;;;;;;;;;;;;;;19.39;48.73;99586.09;2059709;28;6142;-67
2023/12/26 03:31:46;;;;;;;;;;;;;;;19.39;48.61;99591.81;2061349;28;2054;-68
2023/12/26 03:32:47;;;;;;;;;;;;;;;19.38;48.64;99590.38;2061415;28;1646;-67
2023/12/26 03:33:49;;;;;;;;;;;;;;;19.36;48.73;99576.69;2060356;28;1889;-69
2023/12/26 03:34:50;;;;;;;;;;;;;;;19.38;48.56;99596.13;2056487;28;2163;-67
2023/12/26 03:35:52;;;;;;;;;;;;;;;19.36;48.71;99596.06;2060283;28;1702;-67
2023/12/26 03:36:53;;;;;;;;;;;;;;;19.36;48.66;99598.94;2057589;28;1915;-67
2023/12/26 03:37:55;;;;;;;;;;;;;;;19.35;48.73;99594.56;2061710;28;1881;-67
2023/12/26 03:38:57;;;;;;;;;;;;;;;19.36;48.63;99601.78;2059362;28;2217;-67
2023/12/26 03:39:58;;;;;;;;;;;;;;;19.35;48.74;99603.19;2061255;28;2093;-67
2023/12/26 03:41:00;;;;;;;;;;;;;;;19.35;48.80;99591.69;2059157;28;1874;-67
2023/12/26 03:42:01;;;;;;;;;;;;;;;19.36;48.73;99593.91;2062112;28;1975;-67
2023/12/26 03:43:03;;;;;;;;;;;;;;;19.36;48.70;99590.31;2061221;28;2027;-67
2023/12/26 03:44:04;;;;;;;;;;;;;;;19.37;48.68;99594.63;2058922;28;2135;-67
2023/12/26 03:45:06;;;;;;;;;;;;;;;19.37;48.66;99594.63;2061062;28;2077;-67
2023/12/26 03:46:07;;;;;;;;;;;;;;;19.38;48.64;99578.91;2062003;28;2085;-67
2023/12/26 03:47:08;;;;;;;;;;;;;;;19.40;48.56;99587.53;2062507;28;1782;-67
2023/12/26 03:48:10;;;;;;;;;;;;;;;19.41;48.44;99589.03;2062544;28;1654;-67
2023/12/26 03:49:12;;;;;;;;;;;;;;;19.42;48.45;99593.34;2060509;28;2154;-67
2023/12/26 03:50:13;;;;;;;;;;;;;;;19.42;48.42;99588.38;2060254;28;2239;-67
2023/12/26 03:51:14;;;;;;;;;;;;;;;19.43;48.44;99586.22;2060498;28;1670;-67
2023/12/26 03:52:16;;;;;;;;;;;;;;;19.43;48.27;99584.06;2064005;28;1575;-67
2023/12/26 03:53:17;;;;;;;;;;;;;;;19.45;48.25;99577.66;2062318;28;2115;-67
2023/12/26 03:54:19;;;;;;;;;;;;;;;19.45;48.27;99583.41;2063715;28;2037;-67
2023/12/26 03:55:20;;;;;;;;;;;;;;;19.47;48.35;99589.22;2063396;28;1714;-67
2023/12/26 03:56:22;;;;;;;;;;;;;;;19.46;48.21;99584.88;2062027;28;2074;-67
2023/12/26 03:57:23;;;;;;;;;;;;;;;19.48;48.20;99581.31;2060599;28;1985;-67
2023/12/26 03:58:24;;;;;;;;;;;;;;;19.47;48.28;99577.72;2059540;28;2083;-67
2023/12/26 03:59:26;;;;;;;;;;;;;;;19.48;48.30;99587.78;2060169;28;2322;-68
2023/12/26 04:00:30;;;;;;;;;;;;;;;19.48;48.22;99581.31;2058282;28;6095;-67
2023/12/26 04:01:31;;;;;;;;;;;;;;;19.48;48.20;99593.53;2063445;28;2138;-67
2023/12/26 04:02:33;;;;;;;;;;;;;;;19.48;48.21;99599.28;2063196;28;1567;-67
2023/12/26 04:03:34;;;;;;;;;;;;;;;19.49;48.30;99597.13;2063793;28;1718;-67
2023/12/26 04:04:35;;;;;;;;;;;;;;;19.48;48.23;99596.41;2061029;28;2337;-67
2023/12/26 04:05:37;;;;;;;;;;;;;;;19.49;48.34;99600.00;2054412;28;2404;-68
2023/12/26 04:06:39;;;;;;;;;;;;;;;19.48;48.24;99596.41;2052642;28;2044;-67
2023/12/26 04:07:40;;;;;;;;;;;;;;;19.48;48.23;99599.28;2058649;28;2076;-67
2023/12/26 04:08:41;;;;;;;;;;;;;;;19.48;48.27;99599.28;2064524;28;1786;-67
2023/12/26 04:09:43;;;;;;;;;;;;;;;19.48;48.22;99596.41;2061913;28;2031;-68
2023/12/26 04:10:44;;;;;;;;;;;;;;;19.48;48.32;99605.03;2061602;28;2299;-67
2023/12/26 04:11:46;;;;;;;;;;;;;;;19.48;48.27;99599.28;2064188;28;1822;-67
2023/12/26 04:12:47;;;;;;;;;;;;;;;19.48;48.31;99605.03;2060465;28;2043;-67
2023/12/26 04:13:48;;;;;;;;;;;;;;;19.48;48.19;99599.28;2060752;28;2385;-67
2023/12/26 04:14:50;;;;;;;;;;;;;;;19.48;48.31;99596.41;2061713;28;2265;-67
2023/12/26 04:15:51;;;;;;;;;;;;;;;19.48;48.29;99595.69;2061119;28;2364;-67
2023/12/26 04:16:53;;;;;;;;;;;;;;;19.48;48.27;99593.53;2059740;28;2113;-67
2023/12/26 04:17:54;;;;;;;;;;;;;;;19.48;48.36;99592.81;2062229;28;2236;-67
2023/12/26 04:18:56;;;;;;;;;;;;;;;19.49;48.40;99597.88;2060183;28;2017;-67
2023/12/26 04:19:57;;;;;;;;;;;;;;;19.49;48.27;99597.88;2065088;28;2303;-67
2023/12/26 04:20:59;;;;;;;;;;;;;;;19.48;48.38;99593.53;2059331;28;2110;-67
2023/12/26 04:22:00;;;;;;;;;;;;;;;19.50;48.26;99596.47;2061771;28;1608;-67
2023/12/26 04:23:02;;;;;;;;;;;;;;;19.50;48.36;99599.34;2060802;28;1985;-67
2023/12/26 04:24:03;;;;;;;;;;;;;;;19.50;48.25;99596.47;2061262;28;2407;-67
2023/12/26 04:25:06;;;;;;;;;;;;;;;19.51;48.36;99597.94;2060400;28;1599;-67
2023/12/26 04:26:07;;;;;;;;;;;;;;;19.52;48.42;99599.41;2062430;28;1706;-67
2023/12/26 04:27:09;;;;;;;;;;;;;;;19.53;48.36;99603.00;2063148;28;2153;-66
2023/12/26 04:28:10;;;;;;;;;;;;;;;19.53;48.26;99605.88;2059392;28;2047;-67
2023/12/26 04:29:12;;;;;;;;;;;;;;;19.53;48.39;99603.72;2058323;28;2387;-67
2023/12/26 04:30:13;;;;;;;;;;;;;;;19.54;48.50;99608.09;2060441;28;6115;-67
2023/12/26 04:31:15;;;;;;;;;;;;;;;19.55;48.28;99598.06;2061495;28;2390;-67
2023/12/26 04:32:16;;;;;;;;;;;;;;;19.55;48.48;99603.78;2059840;28;1896;-67
2023/12/26 04:33:18;;;;;;;;;;;;;;;19.56;48.56;99601.66;2061235;28;1625;-66
2023/12/26 04:34:19;;;;;;;;;;;;;;;19.55;48.71;99609.53;2062456;28;2136;-66
2023/12/26 04:35:21;;;;;;;;;;;;;;;19.56;48.55;99608.16;2063022;28;2215;-67
2023/12/26 04:36:22;;;;;;;;;;;;;;;19.55;48.60;99603.78;2063537;28;1611;-67
2023/12/26 04:37:26;;;;;;;;;;;;;;;19.55;48.53;99621.03;2061894;28;2208;-67
2023/12/26 04:38:27;;;;;;;;;;;;;;;19.55;48.55;99609.53;2057968;28;1551;-67
2023/12/26 04:39:29;;;;;;;;;;;;;;;19.54;48.38;99608.09;2061943;28;2036;-66
2023/12/26 04:40:30;;;;;;;;;;;;;;;19.55;48.42;99612.41;2061306;28;1615;-67
2023/12/26 04:41:32;;;;;;;;;;;;;;;19.54;48.60;99613.06;2063657;28;1738;-68
2023/12/26 04:42:33;;;;;;;;;;;;;;;19.54;48.68;99619.56;2064178;28;2318;-67
2023/12/26 04:43:35;;;;;;;;;;;;;;;19.55;48.64;99620.28;2062332;28;1686;-67
2023/12/26 04:44:36;;;;;;;;;;;;;;;19.54;48.56;99625.31;2062785;28;2142;-67
2023/12/26 04:45:41;;;;;;;;;;;;;;;19.55;48.69;99626.03;2060261;28;2323;-67
2023/12/26 04:46:42;;;;;;;;;;;;;;;19.54;48.74;99625.31;2059989;28;2502;-67
2023/12/26 04:47:43;;;;;;;;;;;;;;;19.54;48.61;99633.94;2061265;28;2435;-67
2023/12/26 04:48:45;;;;;;;;;;;;;;;19.53;48.54;99623.81;2063200;28;1706;-67
2023/12/26 04:49:47;;;;;;;;;;;;;;;19.55;48.59;99632.50;2060981;28;2591;-67
2023/12/26 04:50:48;;;;;;;;;;;;;;;19.55;48.51;99632.50;2062506;28;2243;-67
2023/12/26 04:51:50;;;;;;;;;;;;;;;19.55;48.50;99626.75;2062063;28;1932;-67
2023/12/26 04:52:51;;;;;;;;;;;;;;;19.55;48.44;99626.75;2061581;28;1931;-67
2023/12/26 04:53:53;;;;;;;;;;;;;;;19.56;48.38;99622.50;2061705;28;1695;-67
2023/12/26 04:54:54;;;;;;;;;;;;;;;19.55;48.51;99615.28;2061472;28;1897;-67
2023/12/26 04:55:56;;;;;;;;;;;;;;;19.55;48.50;99615.28;2064210;28;1655;-67
2023/12/26 04:56:57;;;;;;;;;;;;;;;19.55;48.53;99621.03;2061894;28;2041;-68
2023/12/26 04:57:58;;;;;;;;;;;;;;;19.55;48.50;99615.28;2060420;28;2770;-67
2023/12/26 04:59:00;;;;;;;;;;;;;;;19.56;48.43;99621.75;2061163;28;2060;-67
2023/12/26 05:00:02;;;;;;;;;;;;;;;19.56;48.46;99621.75;2060471;28;2095;-67
2023/12/26 05:01:03;;;;;;;;;;;;;;;19.56;48.48;99616.00;2058035;28;6047;-67
2023/12/26 05:02:05;;;;;;;;;;;;;;;19.56;48.46;99616.75;2065707;28;1616;-67
2023/12/26 05:03:06;;;;;;;;;;;;;;;19.57;48.43;99626.81;2063169;28;2193;-67
2023/12/26 05:04:10;;;;;;;;;;;;;;;19.58;48.51;99622.53;2065748;28;2048;-67
2023/12/26 05:05:11;;;;;;;;;;;;;;;19.58;48.41;99621.81;2056155;28;2291;-67
2023/12/26 05:06:12;;;;;;;;;;;;;;;19.59;48.52;99624.03;2060256;28;2314;-66
2023/12/26 05:07:14;;;;;;;;;;;;;;;19.58;48.51;99619.66;2058405;28;2249;-66
2023/12/26 05:08:15;;;;;;;;;;;;;;;19.60;48.66;99622.59;2062865;28;2131;-66
2023/12/26 05:09:17;;;;;;;;;;;;;;;19.60;48.72;99621.88;2060690;28;2153;-66
2023/12/26 05:10:19;;;;;;;;;;;;;;;19.61;48.73;99623.34;2060435;28;1956;-66
2023/12/26 05:11:23;;;;;;;;;;;;;;;19.61;48.67;99626.94;2060908;28;1802;-66
2023/12/26 05:12:24;;;;;;;;;;;;;;;19.60;48.67;99634.09;2062380;28;2026;-66
2023/12/26 05:13:25;;;;;;;;;;;;;;;19.60;48.22;99622.59;2055104;28;2356;-67
2023/12/26 05:14:27;;;;;;;;;;;;;;;19.61;48.74;99626.22;2052837;28;2110;-67
2023/12/26 05:15:28;;;;;;;;;;;;;;;19.60;48.73;99628.34;2061140;28;1984;-68
2023/12/26 05:16:30;;;;;;;;;;;;;;;19.60;48.79;99634.09;2060422;28;1675;-67
2023/12/26 05:17:32;;;;;;;;;;;;;;;19.57;48.88;99626.09;2058277;28;2035;-67
2023/12/26 05:18:33;;;;;;;;;;;;;;;19.47;49.11;99640.88;2062694;28;1702;-67
2023/12/26 05:19:35;;;;;;;;;;;;;;;19.42;49.01;99642.91;2059901;28;2089;-66
2023/12/26 05:20:36;;;;;;;;;;;;;;;19.40;49.22;99651.44;2059602;28;2325;-67
2023/12/26 05:21:38;;;;;;;;;;;;;;;19.40;49.17;99639.22;2061547;28;1682;-66
2023/12/26 05:22:39;;;;;;;;;;;;;;;19.37;49.19;99635.56;2058597;28;1735;-67
2023/12/26 05:23:40;;;;;;;;;;;;;;;19.37;49.22;99641.28;2063189;28;2400;-66
2023/12/26 05:24:42;;;;;;;;;;;;;;;19.36;49.05;99645.56;2060883;28;1906;-66
2023/12/26 05:25:52;;;;;;;;;;;;;;;19.37;49.31;99640.56;2060735;28;2110;-67